createdAt,value
2018-09-02T00:04:08.636Z,102072.00
2018-09-02T00:09:01.985Z,102078.00
2018-09-02T00:13:55.298Z,102069.00
2018-09-02T00:18:49.292Z,102069.00
2018-09-02T00:23:43.653Z,102062.00
2018-09-02T00:28:36.948Z,102068.00
2018-09-02T00:33:30.380Z,102065.00
2018-09-02T00:38:23.684Z,102065.00
2018-09-02T00:43:16.990Z,102060.00
2018-09-02T00:48:10.284Z,102062.00
2018-09-02T00:53:03.632Z,102060.00
2018-09-02T00:57:56.942Z,102056.00
2018-09-02T01:02:50.609Z,102059.00
2018-09-02T01:07:43.918Z,102062.00
2018-09-02T01:12:37.412Z,102069.00
2018-09-02T01:17:30.736Z,102075.00
2018-09-02T01:22:23.994Z,102084.00
2018-09-02T01:27:17.296Z,102080.00
2018-09-02T01:32:10.606Z,102080.00
2018-09-02T01:37:03.988Z,102084.00
2018-09-02T01:41:57.312Z,102082.00
2018-09-02T01:46:50.604Z,102085.00
2018-09-02T01:51:43.937Z,102084.00
2018-09-02T01:56:37.390Z,102084.00
2018-09-02T02:01:30.817Z,102083.00
2018-09-02T02:06:24.190Z,102082.00
2018-09-02T02:11:17.495Z,102078.00
2018-09-02T02:16:10.754Z,102074.00
2018-09-02T02:21:04.001Z,102071.00
2018-09-02T02:25:57.288Z,102068.00
2018-09-02T02:30:50.569Z,102069.00
2018-09-02T02:35:43.853Z,102064.00
2018-09-02T02:40:37.290Z,102060.00
2018-09-02T02:45:30.600Z,102055.00
2018-09-02T02:50:23.902Z,102055.00
2018-09-02T02:55:17.200Z,102050.00
2018-09-02T03:00:10.486Z,102045.00
2018-09-02T03:05:03.882Z,102042.00
2018-09-02T03:09:57.119Z,102028.00
2018-09-02T03:14:50.400Z,102037.00
2018-09-02T03:19:43.891Z,102039.00
2018-09-02T03:24:37.150Z,102042.00
2018-09-02T03:29:30.391Z,102042.00
2018-09-02T03:34:24.347Z,102036.00
2018-09-02T03:39:17.642Z,102038.00
2018-09-02T03:44:10.939Z,102036.00
2018-09-02T03:49:04.249Z,102037.00
2018-09-02T03:53:57.513Z,102028.00
2018-09-02T03:58:50.995Z,102025.00
2018-09-02T04:03:45.458Z,102026.00
2018-09-02T04:08:38.771Z,102024.00
2018-09-02T04:13:33.124Z,102023.00
2018-09-02T04:18:26.448Z,102012.00
2018-09-02T04:23:20.761Z,102009.00
2018-09-02T04:28:14.020Z,102020.00
2018-09-02T04:33:07.279Z,102014.00
2018-09-02T04:38:00.538Z,102012.00
2018-09-02T04:42:53.823Z,102007.00
2018-09-02T04:47:47.164Z,102012.00
2018-09-02T04:52:40.499Z,102017.00
2018-09-02T04:57:34.162Z,102019.00
2018-09-02T05:02:27.448Z,102015.00
2018-09-02T05:07:20.778Z,102020.00
2018-09-02T05:12:14.129Z,102017.00
2018-09-02T05:17:07.412Z,102012.00
2018-09-02T05:22:00.774Z,102012.00
2018-09-02T05:26:54.062Z,102007.00
2018-09-02T05:31:48.428Z,102010.00
2018-09-02T05:36:41.744Z,102014.00
2018-09-02T05:41:35.042Z,102016.00
2018-09-02T05:46:28.342Z,102024.00
2018-09-02T05:51:21.635Z,102025.00
2018-09-02T05:56:14.907Z,102022.00
2018-09-02T06:01:08.169Z,102017.00
2018-09-02T06:06:01.498Z,102013.00
2018-09-02T06:10:54.861Z,102008.00
2018-09-02T06:15:48.168Z,102008.00
2018-09-02T06:20:41.499Z,102018.00
2018-09-02T06:25:34.848Z,102004.00
2018-09-02T06:30:28.181Z,101989.00
2018-09-02T06:35:21.602Z,102008.00
2018-09-02T06:40:14.854Z,101985.00
2018-09-02T06:45:08.173Z,101997.00
2018-09-02T06:50:01.450Z,101988.00
2018-09-02T06:54:54.720Z,101991.00
2018-09-02T06:59:48.037Z,101982.00
2018-09-02T07:04:41.417Z,101987.00
2018-09-02T07:09:34.639Z,101968.00
2018-09-02T07:14:28.004Z,101967.00
2018-09-02T07:19:21.308Z,101966.00
2018-09-02T07:24:14.659Z,101986.00
2018-09-02T07:29:07.927Z,101969.00
2018-09-02T07:34:01.235Z,101977.00
2018-09-02T07:38:54.612Z,101971.00
2018-09-02T07:43:47.947Z,101947.00
2018-09-02T07:48:41.207Z,101951.00
2018-09-02T07:53:34.520Z,101949.00
2018-09-02T07:58:27.812Z,101957.00
2018-09-02T08:03:21.106Z,101948.00
2018-09-02T08:08:14.414Z,101948.00
2018-09-02T08:13:07.743Z,101945.00
2018-09-02T08:18:01.078Z,101939.00
2018-09-02T08:22:54.450Z,101933.00
2018-09-02T08:27:48.693Z,101929.00
2018-09-02T08:32:41.992Z,101922.00
2018-09-02T08:37:35.252Z,101918.00
2018-09-02T08:42:28.545Z,101911.00
2018-09-02T08:47:21.924Z,101916.00
2018-09-02T08:52:15.306Z,101929.00
2018-09-02T08:57:08.754Z,101913.00
2018-09-02T09:02:02.061Z,101898.00
2018-09-02T09:06:55.365Z,101901.00
2018-09-02T09:11:49.169Z,101898.00
2018-09-02T09:16:42.627Z,101884.00
2018-09-02T09:21:36.120Z,101883.00
2018-09-02T09:26:29.367Z,101882.00
2018-09-02T09:31:22.713Z,101883.00
2018-09-02T09:36:15.992Z,101871.00
2018-09-02T09:41:09.386Z,101872.00
2018-09-02T09:46:02.744Z,101873.00
2018-09-02T09:50:55.990Z,101856.00
2018-09-02T09:55:49.255Z,101869.00
2018-09-02T10:00:48.868Z,101856.00
2018-09-02T10:05:42.228Z,101846.00
2018-09-02T10:10:35.498Z,101838.00
2018-09-02T10:15:29.030Z,101834.00
2018-09-02T10:20:22.333Z,101828.00
2018-09-02T10:25:15.666Z,101823.00
2018-09-02T10:30:08.953Z,101819.00
2018-09-02T10:35:02.373Z,101807.00
2018-09-02T10:39:55.865Z,101807.00
2018-09-02T10:44:49.203Z,101792.00
2018-09-02T10:49:42.542Z,101772.00
2018-09-02T10:54:35.814Z,101784.00
2018-09-02T10:59:29.214Z,101787.00
2018-09-02T11:04:22.475Z,101778.00
2018-09-02T11:09:15.798Z,101770.00
2018-09-02T11:14:09.657Z,101754.00
2018-09-02T11:19:03.001Z,101748.00
2018-09-02T11:23:56.280Z,101767.00
2018-09-02T11:28:49.662Z,101759.00
2018-09-02T11:33:43.036Z,101757.00
2018-09-02T11:38:36.412Z,101745.00
2018-09-02T11:43:30.003Z,101735.00
2018-09-02T11:48:23.852Z,101738.00
2018-09-02T11:53:17.186Z,101736.00
2018-09-02T11:58:10.536Z,101735.00
2018-09-02T12:03:03.992Z,101733.00
2018-09-02T12:07:57.265Z,101735.00
2018-09-02T12:12:50.630Z,101727.00
2018-09-02T12:17:43.952Z,101725.00
2018-09-02T12:22:37.261Z,101720.00
2018-09-02T12:27:31.320Z,101713.00
2018-09-02T12:32:24.935Z,101713.00
2018-09-02T12:37:18.271Z,101715.00
2018-09-02T12:42:12.592Z,101704.00
2018-09-02T12:47:05.957Z,101697.00
2018-09-02T12:51:59.328Z,101699.00
2018-09-02T12:56:52.633Z,101682.00
2018-09-02T13:01:45.911Z,101676.00
2018-09-02T13:06:39.252Z,101660.00
2018-09-02T13:11:32.550Z,101655.00
2018-09-02T13:16:25.822Z,101658.00
2018-09-02T13:21:19.125Z,101645.00
2018-09-02T13:26:12.453Z,101639.00
2018-09-02T13:31:06.106Z,101639.00
2018-09-02T13:35:59.436Z,101637.00
2018-09-02T13:40:52.760Z,101634.00
2018-09-02T13:45:46.019Z,101635.00
2018-09-02T13:50:39.296Z,101623.00
2018-09-02T13:55:32.619Z,101619.00
2018-09-02T14:00:25.931Z,101618.00
2018-09-02T14:05:19.272Z,101609.00
2018-09-02T14:10:12.574Z,101606.00
2018-09-02T14:15:06.577Z,101602.00
2018-09-02T14:19:59.838Z,101592.00
2018-09-02T14:24:53.157Z,101587.00
2018-09-02T14:29:46.550Z,101591.00
2018-09-02T14:34:40.028Z,101593.00
2018-09-02T14:39:33.356Z,101577.00
2018-09-02T14:44:26.613Z,101572.00
2018-09-02T14:49:19.956Z,101562.00
2018-09-02T14:54:13.682Z,101556.00
2018-09-02T14:59:07.620Z,101556.00
2018-09-02T15:04:01.018Z,101548.00
2018-09-02T15:08:54.401Z,101558.00
2018-09-02T15:13:48.884Z,101560.00
2018-09-02T15:18:42.295Z,101559.00
2018-09-02T15:23:35.736Z,101553.00
2018-09-02T15:28:29.243Z,101551.00
2018-09-02T15:33:22.542Z,101541.00
2018-09-02T15:38:15.840Z,101551.00
2018-09-02T15:43:09.148Z,101541.00
2018-09-02T15:48:02.491Z,101535.00
2018-09-02T15:52:55.766Z,101543.00
2018-09-02T15:57:49.096Z,101538.00
2018-09-02T16:02:42.401Z,101534.00
2018-09-02T16:07:36.011Z,101532.00
2018-09-02T16:12:29.928Z,101534.00
2018-09-02T16:17:23.190Z,101532.00
2018-09-02T16:22:16.528Z,101529.00
2018-09-02T16:27:09.829Z,101530.00
2018-09-02T16:32:03.431Z,101531.00
2018-09-02T16:36:56.701Z,101539.00
2018-09-02T16:41:50.098Z,101539.00
2018-09-02T16:46:43.618Z,101532.00
2018-09-02T16:51:37.013Z,101533.00
2018-09-02T16:56:30.445Z,101533.00
2018-09-02T17:01:23.970Z,101537.00
2018-09-02T17:06:17.396Z,101535.00
2018-09-02T17:11:10.755Z,101532.00
2018-09-02T17:16:04.106Z,101532.00
2018-09-02T17:20:57.447Z,101532.00
2018-09-02T17:25:50.878Z,101532.00
2018-09-02T17:30:44.103Z,101531.00
2018-09-02T17:35:37.420Z,101535.00
2018-09-02T17:40:31.367Z,101535.00
2018-09-02T17:45:24.848Z,101529.00
2018-09-02T17:50:18.622Z,101527.00
2018-09-02T17:55:12.103Z,101522.00
2018-09-02T18:00:06.047Z,101535.00
2018-09-02T18:04:59.408Z,101537.00
2018-09-02T18:09:52.805Z,101547.00
2018-09-02T18:14:46.173Z,101547.00
2018-09-02T18:19:39.497Z,101550.00
2018-09-02T18:24:33.741Z,101567.00
2018-09-02T18:29:27.095Z,101556.00
2018-09-02T18:34:20.372Z,101559.00
2018-09-02T18:39:13.820Z,101573.00
2018-09-02T18:44:07.566Z,101576.00
2018-09-02T18:49:00.909Z,101583.00
2018-09-02T18:53:54.276Z,101591.00
2018-09-02T18:58:48.101Z,101598.00
2018-09-02T19:03:41.426Z,101595.00
2018-09-02T19:08:34.786Z,101594.00
2018-09-02T19:13:28.239Z,101585.00
2018-09-02T19:18:21.525Z,101590.00
2018-09-02T19:23:14.897Z,101590.00
2018-09-02T19:28:08.247Z,101586.00
2018-09-02T19:33:01.558Z,101596.00
2018-09-02T19:37:54.913Z,101593.00
2018-09-02T19:42:48.296Z,101594.00
2018-09-02T19:47:41.666Z,101586.00
2018-09-02T19:52:34.994Z,101585.00
2018-09-02T19:57:28.258Z,101580.00
2018-09-02T20:02:21.780Z,101578.00
2018-09-02T20:07:15.254Z,101571.00
2018-09-02T20:12:09.412Z,101572.00
2018-09-02T20:17:02.906Z,101566.00
2018-09-02T20:21:56.365Z,101568.00
2018-09-02T20:26:49.764Z,101559.00
2018-09-02T20:31:43.104Z,101548.00
2018-09-02T20:36:36.559Z,101546.00
2018-09-02T20:41:30.074Z,101552.00
2018-09-02T20:46:23.466Z,101549.00
2018-09-02T20:51:16.872Z,101538.00
2018-09-02T20:56:10.718Z,101555.00
2018-09-02T21:06:40.010Z,101548.00
2018-09-02T21:11:33.507Z,101545.00
2018-09-02T21:16:26.796Z,101551.00
2018-09-02T21:21:20.179Z,101552.00
2018-09-02T21:26:14.822Z,101547.00
2018-09-02T21:31:08.740Z,101546.00
2018-09-02T21:36:02.082Z,101538.00
2018-09-02T21:40:56.274Z,101538.00
2018-09-02T21:45:49.584Z,101530.00
2018-09-02T21:50:42.960Z,101522.00
2018-09-02T21:55:36.224Z,101523.00
2018-09-02T22:00:29.678Z,101520.00
2018-09-02T22:05:23.806Z,101522.00
2018-09-02T22:10:17.188Z,101517.00
2018-09-02T22:15:10.865Z,101514.00
2018-09-02T22:20:04.747Z,101510.00
2018-09-02T22:24:58.074Z,101512.00
2018-09-02T22:29:51.339Z,101501.00
2018-09-02T22:34:44.636Z,101504.00
2018-09-02T22:39:37.980Z,101502.00
2018-09-02T22:44:31.242Z,101507.00
2018-09-02T22:49:24.672Z,101502.00
2018-09-02T22:54:18.028Z,101496.00
2018-09-02T22:59:11.292Z,101493.00
2018-09-02T23:04:04.574Z,101486.00
2018-09-02T23:08:57.850Z,101489.00
2018-09-02T23:13:51.119Z,101482.00
2018-09-02T23:18:44.417Z,101476.00
2018-09-02T23:23:37.889Z,101475.00
2018-09-02T23:28:31.245Z,101469.00
2018-09-02T23:33:24.512Z,101460.00
2018-09-02T23:38:17.863Z,101460.00
2018-09-02T23:43:11.220Z,101454.00
2018-09-02T23:48:04.921Z,101451.00
2018-09-02T23:52:58.342Z,101445.00
2018-09-02T23:57:51.605Z,101442.00
